createdAt,value
2022-12-31T00:00:51.953Z,3.13
2022-12-31T00:03:20.057Z,1.80
2022-12-31T00:05:48.186Z,1.80
2022-12-31T00:08:17.542Z,4.60
2022-12-31T00:10:45.605Z,1.90
2022-12-31T00:13:14.490Z,1.93
2022-12-31T00:15:44.352Z,2.50
2022-12-31T00:18:13.550Z,2.13
2022-12-31T00:20:45.486Z,2.53
2022-12-31T00:23:13.861Z,2.13
2022-12-31T00:25:43.327Z,1.70
2022-12-31T00:28:11.319Z,2.13
2022-12-31T00:30:39.435Z,1.70
2022-12-31T00:33:07.467Z,1.80
2022-12-31T00:35:36.479Z,3.20
2022-12-31T00:38:04.561Z,1.60
2022-12-31T00:40:32.545Z,1.50
2022-12-31T00:43:01.840Z,2.83
2022-12-31T00:45:29.820Z,1.77
2022-12-31T00:47:57.832Z,1.60
2022-12-31T00:50:25.840Z,2.00
2022-12-31T00:52:53.781Z,2.20
2022-12-31T00:55:21.809Z,1.53
2022-12-31T00:57:54.181Z,2.03
2022-12-31T01:00:26.004Z,3.27
2022-12-31T01:02:54.116Z,1.53
2022-12-31T01:05:22.351Z,1.43
2022-12-31T01:07:50.267Z,1.40
2022-12-31T01:10:40.973Z,1.20
2022-12-31T01:13:08.911Z,1.53
2022-12-31T01:15:39.692Z,3.13
2022-12-31T01:18:09.345Z,1.50
2022-12-31T01:20:38.623Z,1.00
2022-12-31T01:23:06.873Z,1.40
2022-12-31T01:25:37.350Z,1.10
2022-12-31T01:28:05.787Z,1.10
2022-12-31T01:30:33.799Z,1.57
2022-12-31T01:33:03.256Z,0.70
2022-12-31T01:35:31.265Z,1.10
2022-12-31T01:37:59.282Z,1.57
2022-12-31T01:40:27.269Z,2.13
2022-12-31T01:42:56.471Z,1.37
2022-12-31T01:45:25.010Z,1.40
2022-12-31T01:47:57.171Z,1.20
2022-12-31T01:50:29.220Z,1.60
2022-12-31T01:53:00.324Z,1.53
2022-12-31T01:55:31.589Z,1.77
2022-12-31T01:58:05.304Z,1.37
2022-12-31T02:00:33.706Z,1.97
2022-12-31T02:03:01.918Z,1.13
2022-12-31T02:05:37.624Z,1.10
2022-12-31T02:08:07.305Z,1.40
2022-12-31T02:10:35.304Z,1.37
2022-12-31T02:13:03.685Z,1.20
2022-12-31T02:15:39.548Z,1.83
2022-12-31T02:18:18.841Z,1.57
2022-12-31T02:21:05.491Z,2.07
2022-12-31T02:24:08.353Z,2.77
2022-12-31T02:26:51.137Z,1.10
2022-12-31T02:29:59.658Z,1.23
2022-12-31T02:32:38.043Z,0.83
2022-12-31T02:35:11.152Z,1.63
2022-12-31T02:37:43.207Z,1.83
2022-12-31T02:40:15.704Z,1.63
2022-12-31T02:42:55.053Z,1.37
2022-12-31T02:45:30.579Z,2.87
2022-12-31T02:48:11.773Z,2.93
2022-12-31T02:50:55.549Z,1.20
2022-12-31T02:53:35.773Z,1.73
2022-12-31T02:56:09.961Z,3.43
2022-12-31T02:59:02.220Z,2.17
2022-12-31T03:01:53.528Z,2.10
2022-12-31T03:04:36.154Z,3.13
2022-12-31T03:07:06.035Z,4.20
2022-12-31T03:09:34.474Z,1.83
2022-12-31T03:12:21.432Z,1.30
2022-12-31T03:14:49.346Z,1.43
2022-12-31T03:17:17.711Z,4.53
2022-12-31T03:20:04.392Z,5.07
2022-12-31T03:22:32.831Z,2.57
2022-12-31T03:25:21.104Z,2.20
2022-12-31T03:27:49.697Z,1.83
2022-12-31T03:30:19.091Z,2.97
2022-12-31T03:32:48.316Z,4.00
2022-12-31T03:35:20.274Z,3.57
2022-12-31T03:37:49.658Z,2.13
2022-12-31T03:40:18.823Z,3.30
2022-12-31T03:42:46.842Z,3.10
2022-12-31T03:45:15.328Z,5.40
2022-12-31T03:47:43.661Z,4.60
2022-12-31T03:50:13.464Z,7.20
2022-12-31T03:52:43.305Z,1.50
2022-12-31T03:55:12.419Z,2.33
2022-12-31T03:57:40.902Z,2.43
2022-12-31T04:00:13.279Z,1.40
2022-12-31T04:02:41.408Z,5.10
2022-12-31T04:05:10.661Z,1.23
2022-12-31T04:07:39.029Z,1.77
2022-12-31T04:10:11.060Z,2.50
2022-12-31T04:12:39.347Z,4.33
2022-12-31T04:15:09.405Z,1.93
2022-12-31T04:17:37.669Z,1.97
2022-12-31T04:20:06.228Z,3.67
2022-12-31T04:22:34.242Z,2.00
2022-12-31T04:25:02.127Z,1.80
2022-12-31T04:27:31.656Z,7.50
2022-12-31T04:29:59.578Z,2.00
2022-12-31T04:32:27.544Z,3.87
2022-12-31T04:34:57.660Z,4.70
2022-12-31T04:37:25.578Z,1.87
2022-12-31T04:39:53.479Z,2.87
2022-12-31T04:42:21.397Z,3.10
2022-12-31T04:44:50.666Z,2.07
2022-12-31T04:47:23.376Z,3.53
2022-12-31T04:49:51.858Z,4.03
2022-12-31T04:52:19.981Z,3.27
2022-12-31T04:54:47.911Z,5.20
2022-12-31T04:57:15.877Z,6.17
2022-12-31T04:59:43.843Z,2.23
2022-12-31T05:02:13.345Z,2.30
2022-12-31T05:04:41.437Z,3.93
2022-12-31T05:07:09.571Z,3.03
2022-12-31T05:09:37.538Z,2.97
2022-12-31T05:12:05.956Z,2.30
2022-12-31T05:14:33.941Z,2.83
2022-12-31T05:17:01.914Z,3.10
2022-12-31T05:19:31.240Z,2.63
2022-12-31T05:22:16.819Z,2.50
2022-12-31T05:24:44.746Z,2.27
2022-12-31T05:27:12.765Z,2.67
2022-12-31T05:29:40.680Z,3.23
2022-12-31T05:32:08.767Z,1.90
2022-12-31T05:34:38.143Z,2.50
2022-12-31T05:37:06.105Z,2.40
2022-12-31T05:39:34.104Z,3.07
2022-12-31T05:42:02.054Z,2.37
2022-12-31T05:44:30.049Z,1.93
2022-12-31T05:46:57.963Z,1.93
2022-12-31T05:49:26.064Z,2.43
2022-12-31T05:51:55.299Z,3.50
2022-12-31T05:54:23.224Z,4.00
2022-12-31T05:56:51.162Z,3.50
2022-12-31T05:59:19.114Z,2.60
2022-12-31T06:01:47.206Z,2.40
2022-12-31T06:04:15.202Z,2.37
2022-12-31T06:06:43.302Z,3.77
2022-12-31T06:09:12.642Z,1.93
2022-12-31T06:11:40.803Z,2.93
2022-12-31T06:14:09.295Z,1.97
2022-12-31T06:16:37.582Z,2.93
2022-12-31T06:19:06.066Z,1.80
2022-12-31T06:21:34.193Z,3.33
2022-12-31T06:24:02.208Z,2.33
2022-12-31T06:26:31.486Z,3.03
2022-12-31T06:28:59.489Z,2.27
2022-12-31T06:31:27.744Z,2.80
2022-12-31T06:33:56.108Z,3.90
2022-12-31T06:36:24.068Z,2.60
2022-12-31T06:38:52.157Z,1.87
2022-12-31T06:41:20.375Z,2.27
2022-12-31T06:43:50.093Z,2.17
2022-12-31T06:46:21.925Z,2.90
2022-12-31T06:48:49.917Z,1.90
2022-12-31T06:51:20.424Z,2.70
2022-12-31T06:53:50.414Z,2.53
2022-12-31T06:56:20.698Z,2.37
2022-12-31T06:58:51.243Z,2.60
2022-12-31T07:01:44.444Z,2.30
2022-12-31T07:04:45.212Z,1.90
2022-12-31T07:07:20.029Z,1.50
2022-12-31T07:09:58.477Z,1.80
2022-12-31T07:12:39.662Z,2.73
2022-12-31T07:15:15.493Z,2.60
2022-12-31T07:17:49.867Z,1.20
2022-12-31T07:20:19.766Z,2.03
2022-12-31T07:22:48.551Z,2.63
2022-12-31T07:25:18.552Z,4.60
2022-12-31T07:28:03.833Z,3.07
2022-12-31T07:30:43.794Z,1.87
2022-12-31T07:33:41.404Z,2.97
2022-12-31T07:36:22.644Z,2.73
2022-12-31T07:38:57.450Z,3.43
2022-12-31T07:41:41.579Z,4.80
2022-12-31T07:44:22.742Z,2.90
2022-12-31T07:46:56.624Z,2.57
2022-12-31T07:49:26.188Z,3.67
2022-12-31T07:51:54.841Z,3.53
2022-12-31T07:54:23.119Z,1.40
2022-12-31T07:56:51.766Z,2.90
2022-12-31T07:59:37.880Z,4.23
2022-12-31T08:02:17.836Z,2.73
2022-12-31T08:04:55.362Z,1.90
2022-12-31T08:07:35.305Z,2.60
2022-12-31T08:10:15.696Z,2.00
2022-12-31T08:12:47.879Z,2.87
2022-12-31T08:15:17.890Z,3.07
2022-12-31T08:17:47.554Z,5.07
2022-12-31T08:20:18.483Z,3.13
2022-12-31T08:23:12.895Z,7.53
2022-12-31T08:25:52.586Z,3.00
2022-12-31T08:28:27.949Z,2.83
2022-12-31T08:31:02.133Z,4.00
2022-12-31T08:33:36.593Z,5.50
2022-12-31T08:36:15.961Z,3.93
2022-12-31T08:38:56.038Z,2.30
2022-12-31T08:41:30.722Z,2.77
2022-12-31T08:44:11.703Z,5.77
2022-12-31T08:46:47.156Z,3.47
2022-12-31T08:49:17.215Z,3.50
2022-12-31T08:51:45.640Z,3.87
2022-12-31T08:54:14.778Z,2.60
2022-12-31T08:56:52.905Z,3.73
2022-12-31T08:59:34.880Z,3.23
2022-12-31T09:02:26.999Z,3.60
2022-12-31T09:05:06.208Z,4.00
2022-12-31T09:07:38.778Z,3.83
2022-12-31T09:10:21.966Z,3.03
2022-12-31T09:13:01.385Z,2.67
2022-12-31T09:15:37.748Z,4.00
2022-12-31T09:18:06.488Z,2.63
2022-12-31T09:20:44.736Z,3.80
2022-12-31T09:23:13.835Z,2.70
2022-12-31T09:25:48.460Z,3.67
2022-12-31T09:28:19.702Z,2.83
2022-12-31T09:30:55.882Z,2.33
2022-12-31T09:33:36.446Z,1.93
2022-12-31T09:36:09.087Z,3.10
2022-12-31T09:38:43.708Z,2.80
2022-12-31T09:41:17.437Z,5.13
2022-12-31T09:44:27.777Z,3.67
2022-12-31T09:47:39.443Z,6.43
2022-12-31T09:50:53.682Z,5.30
2022-12-31T09:53:45.011Z,2.33
2022-12-31T09:56:21.679Z,3.97
2022-12-31T09:59:01.362Z,4.00
2022-12-31T10:01:46.607Z,4.37
2022-12-31T10:04:34.825Z,2.83
2022-12-31T10:07:21.598Z,2.17
2022-12-31T10:10:10.381Z,3.07
2022-12-31T10:13:03.832Z,3.53
2022-12-31T10:16:02.839Z,4.30
2022-12-31T10:18:45.399Z,2.40
2022-12-31T10:21:29.441Z,2.97
2022-12-31T10:24:18.473Z,4.17
2022-12-31T10:27:05.688Z,5.90
2022-12-31T10:29:46.396Z,2.97
2022-12-31T10:32:19.776Z,5.17
2022-12-31T10:34:55.801Z,2.80
2022-12-31T10:37:27.931Z,4.63
2022-12-31T10:40:11.097Z,2.83
2022-12-31T10:43:21.259Z,2.73
2022-12-31T10:46:28.091Z,3.17
2022-12-31T10:49:32.367Z,10.67
2022-12-31T10:52:29.434Z,5.53
2022-12-31T10:55:28.438Z,7.73
2022-12-31T10:58:47.611Z,2.93
2022-12-31T11:01:21.247Z,6.63
2022-12-31T11:04:22.409Z,5.40
2022-12-31T11:07:15.958Z,3.40
2022-12-31T11:10:24.617Z,5.33
2022-12-31T11:16:04.173Z,1.97
2022-12-31T11:18:41.286Z,2.83
2022-12-31T11:21:26.268Z,3.73
2022-12-31T11:24:06.413Z,2.20
2022-12-31T11:26:49.584Z,4.30
2022-12-31T11:29:32.064Z,3.20
2022-12-31T11:32:15.890Z,4.50
2022-12-31T11:35:26.348Z,4.40
2022-12-31T11:38:03.225Z,4.37
2022-12-31T11:40:42.977Z,3.40
2022-12-31T11:43:26.629Z,3.17
2022-12-31T11:46:25.209Z,4.47
2022-12-31T11:49:06.756Z,4.70
2022-12-31T11:51:50.707Z,5.70
2022-12-31T11:54:50.928Z,6.53
2022-12-31T11:57:29.208Z,5.63
2022-12-31T12:00:01.579Z,4.70
2022-12-31T12:02:35.468Z,15.80
2022-12-31T12:05:10.923Z,13.47
2022-12-31T12:07:39.660Z,7.87
2022-12-31T12:10:24.101Z,6.73
2022-12-31T12:12:54.657Z,3.77
2022-12-31T12:15:25.209Z,4.87
2022-12-31T12:17:58.658Z,7.03
2022-12-31T12:20:32.105Z,5.10
2022-12-31T12:23:03.511Z,3.97
2022-12-31T12:25:39.365Z,5.60
2022-12-31T12:28:23.616Z,3.13
2022-12-31T12:30:59.058Z,5.43
2022-12-31T12:33:29.709Z,4.97
2022-12-31T12:36:08.946Z,4.50
2022-12-31T12:38:37.898Z,3.10
2022-12-31T12:41:08.230Z,4.17
2022-12-31T12:43:38.989Z,4.00
2022-12-31T12:46:08.879Z,7.57
2022-12-31T12:48:40.695Z,3.60
2022-12-31T12:51:17.917Z,6.43
2022-12-31T12:53:56.031Z,3.07
2022-12-31T12:56:33.206Z,2.90
2022-12-31T12:59:33.762Z,3.07
2022-12-31T13:02:17.088Z,5.27
2022-12-31T13:05:01.077Z,8.00
2022-12-31T13:07:39.249Z,9.70
2022-12-31T13:10:21.927Z,8.80
2022-12-31T13:15:47.134Z,5.90
2022-12-31T13:18:23.137Z,5.33
2022-12-31T13:20:57.300Z,2.90
2022-12-31T13:23:39.313Z,4.93
2022-12-31T13:26:11.582Z,3.63
2022-12-31T13:28:42.946Z,2.67
2022-12-31T13:31:15.445Z,2.60
2022-12-31T13:33:48.290Z,4.87
2022-12-31T13:36:20.212Z,2.63
2022-12-31T13:38:52.250Z,4.07
2022-12-31T13:41:23.795Z,3.37
2022-12-31T13:43:57.560Z,4.17
2022-12-31T13:46:38.729Z,2.77
2022-12-31T13:49:16.313Z,5.47
2022-12-31T13:51:46.935Z,3.80
2022-12-31T13:54:25.718Z,2.70
2022-12-31T13:56:54.611Z,3.20
2022-12-31T13:59:29.372Z,3.97
2022-12-31T14:02:05.653Z,3.47
2022-12-31T14:04:37.549Z,2.43
2022-12-31T14:07:11.682Z,2.17
2022-12-31T14:09:39.910Z,3.73
2022-12-31T14:12:28.855Z,2.20
2022-12-31T14:15:07.731Z,2.83
2022-12-31T14:17:48.803Z,4.83
2022-12-31T14:20:27.798Z,3.97
2022-12-31T14:23:07.129Z,2.83
2022-12-31T14:25:40.040Z,3.30
2022-12-31T14:28:16.181Z,4.73
2022-12-31T14:30:45.662Z,2.73
2022-12-31T14:33:32.114Z,4.17
2022-12-31T14:36:22.157Z,3.30
2022-12-31T14:39:07.193Z,3.53
2022-12-31T14:41:45.877Z,4.63
2022-12-31T14:44:25.684Z,5.23
2022-12-31T14:47:08.194Z,7.10
2022-12-31T14:49:47.741Z,4.27
2022-12-31T14:52:24.441Z,3.53
2022-12-31T14:55:04.735Z,4.20
2022-12-31T14:58:01.530Z,4.37
2022-12-31T15:00:32.731Z,3.30
2022-12-31T15:03:03.388Z,2.90
2022-12-31T15:05:37.489Z,3.23
2022-12-31T15:08:32.995Z,2.80
2022-12-31T15:11:26.047Z,5.73
2022-12-31T15:14:37.599Z,3.93
2022-12-31T15:17:14.234Z,3.63
2022-12-31T15:20:17.492Z,4.60
2022-12-31T15:22:48.654Z,3.77
2022-12-31T15:25:33.878Z,2.57
2022-12-31T15:28:07.544Z,3.27
2022-12-31T15:30:39.866Z,2.90
2022-12-31T15:33:17.792Z,2.33
2022-12-31T15:35:48.549Z,3.13
2022-12-31T15:38:33.023Z,2.87
2022-12-31T15:41:02.324Z,3.27
2022-12-31T15:43:38.466Z,4.17
2022-12-31T15:46:16.073Z,2.27
2022-12-31T15:48:52.263Z,7.00
2022-12-31T15:51:24.879Z,12.23
2022-12-31T15:53:55.629Z,17.30
2022-12-31T15:56:33.848Z,10.57
2022-12-31T15:59:05.743Z,10.67
2022-12-31T16:01:36.218Z,4.93
2022-12-31T16:04:07.274Z,8.47
2022-12-31T16:06:37.983Z,8.50
2022-12-31T16:09:11.213Z,7.13
2022-12-31T16:11:41.751Z,7.80
2022-12-31T16:14:19.488Z,16.80
2022-12-31T16:16:55.011Z,7.53
2022-12-31T16:19:36.238Z,11.00
2022-12-31T16:22:20.283Z,9.40
2022-12-31T16:27:54.875Z,11.40
2022-12-31T16:30:28.313Z,8.53
2022-12-31T16:33:01.794Z,10.03
2022-12-31T16:35:40.549Z,9.23
2022-12-31T16:38:15.380Z,27.23
2022-12-31T16:41:00.136Z,37.77
2022-12-31T16:43:29.841Z,18.47
2022-12-31T16:45:59.284Z,19.07
2022-12-31T16:48:27.727Z,10.53
2022-12-31T16:50:57.813Z,4.77
2022-12-31T16:53:28.210Z,6.10
2022-12-31T16:56:01.568Z,6.73
2022-12-31T16:58:31.875Z,7.70
2022-12-31T17:01:10.957Z,6.20
2022-12-31T17:03:43.390Z,14.60
2022-12-31T17:06:15.931Z,21.70
2022-12-31T17:08:46.273Z,5.70
2022-12-31T17:11:45.440Z,5.17
2022-12-31T17:14:16.780Z,4.73
2022-12-31T17:17:02.200Z,6.67
2022-12-31T17:19:41.301Z,6.40
2022-12-31T17:22:16.728Z,9.57
2022-12-31T17:24:45.008Z,9.67
2022-12-31T17:27:14.494Z,10.10
2022-12-31T17:29:42.441Z,9.33
2022-12-31T17:32:29.811Z,9.80
2022-12-31T17:34:57.716Z,8.37
2022-12-31T17:37:28.358Z,6.90
2022-12-31T17:40:17.461Z,6.77
2022-12-31T17:42:50.557Z,13.90
2022-12-31T17:45:22.075Z,19.93
2022-12-31T17:47:54.008Z,25.60
2022-12-31T17:50:23.787Z,16.30
2022-12-31T17:52:53.334Z,17.10
2022-12-31T17:55:21.530Z,17.27
2022-12-31T17:57:57.247Z,13.93
2022-12-31T18:00:27.578Z,9.03
2022-12-31T18:02:55.837Z,10.70
2022-12-31T18:05:25.054Z,14.80
2022-12-31T18:07:53.539Z,14.93
2022-12-31T18:10:23.851Z,15.40
2022-12-31T18:12:53.571Z,15.93
2022-12-31T18:15:23.102Z,17.80
2022-12-31T18:17:51.763Z,17.47
2022-12-31T18:20:19.883Z,16.67
2022-12-31T18:22:53.265Z,14.67
2022-12-31T18:25:23.409Z,9.30
2022-12-31T18:27:53.485Z,8.17
2022-12-31T18:30:23.379Z,8.83
2022-12-31T18:32:51.489Z,20.03
2022-12-31T18:35:48.998Z,21.83
2022-12-31T18:38:13.562Z,18.73
2022-12-31T18:40:44.369Z,23.10
2022-12-31T18:43:17.517Z,27.03
2022-12-31T18:45:46.379Z,23.07
2022-12-31T18:48:14.492Z,41.63
2022-12-31T18:50:42.616Z,23.83
2022-12-31T18:53:18.871Z,22.93
2022-12-31T18:55:50.050Z,16.40
2022-12-31T18:58:19.480Z,19.67
2022-12-31T19:00:48.466Z,25.27
2022-12-31T19:03:17.910Z,39.90
2022-12-31T19:05:49.567Z,30.23
2022-12-31T19:08:17.637Z,34.67
2022-12-31T19:10:46.068Z,36.70
2022-12-31T19:13:15.645Z,33.43
2022-12-31T19:15:46.501Z,20.17
2022-12-31T19:18:14.540Z,24.43
2022-12-31T19:20:42.555Z,21.10
2022-12-31T19:23:16.405Z,19.40
2022-12-31T19:25:46.522Z,14.70
2022-12-31T19:28:17.836Z,16.93
2022-12-31T19:30:47.662Z,13.30
2022-12-31T19:33:17.645Z,13.10
2022-12-31T19:35:46.420Z,19.60
2022-12-31T19:38:18.841Z,15.60
2022-12-31T19:40:47.611Z,14.17
2022-12-31T19:43:17.519Z,13.00
2022-12-31T19:45:47.727Z,13.70
2022-12-31T19:48:17.380Z,14.87
2022-12-31T19:50:48.862Z,17.77
2022-12-31T19:53:19.622Z,15.30
2022-12-31T19:55:47.781Z,18.37
2022-12-31T19:58:19.662Z,21.97
2022-12-31T20:00:56.787Z,34.83
2022-12-31T20:03:29.550Z,39.93
2022-12-31T20:06:06.193Z,43.83
2022-12-31T20:08:34.841Z,42.20
2022-12-31T20:11:08.872Z,45.57
2022-12-31T20:13:38.003Z,32.17
2022-12-31T20:16:09.805Z,29.60
2022-12-31T20:18:38.951Z,40.40
2022-12-31T20:21:11.143Z,33.70
2022-12-31T20:23:39.330Z,40.77
2022-12-31T20:26:07.783Z,36.73
2022-12-31T20:28:36.689Z,38.63
2022-12-31T20:31:08.355Z,40.30
2022-12-31T20:33:36.603Z,41.80
2022-12-31T20:36:09.486Z,36.27
2022-12-31T20:38:37.621Z,33.17
2022-12-31T20:41:06.353Z,36.67
2022-12-31T20:43:35.269Z,28.60
2022-12-31T20:46:14.785Z,50.70
2022-12-31T20:48:43.707Z,28.03
2022-12-31T20:51:11.986Z,26.53
2022-12-31T20:53:40.408Z,29.03
2022-12-31T20:56:09.831Z,28.73
2022-12-31T20:58:37.834Z,29.90
2022-12-31T21:01:09.049Z,32.47
2022-12-31T21:04:04.148Z,29.93
2022-12-31T21:06:26.569Z,34.20
2022-12-31T21:08:55.812Z,27.80
2022-12-31T21:11:43.657Z,24.13
2022-12-31T21:14:11.741Z,26.50
2022-12-31T21:16:41.229Z,22.10
2022-12-31T21:19:10.109Z,22.63
2022-12-31T21:21:38.694Z,33.17
2022-12-31T21:24:07.455Z,30.00
2022-12-31T21:26:35.797Z,22.67
2022-12-31T21:29:04.507Z,21.43
2022-12-31T21:31:32.791Z,18.63
2022-12-31T21:34:02.432Z,15.97
2022-12-31T21:36:30.474Z,16.93
2022-12-31T21:38:58.714Z,14.00
2022-12-31T21:41:44.340Z,9.90
2022-12-31T21:44:12.327Z,9.13
2022-12-31T21:46:54.540Z,13.57
2022-12-31T21:49:29.712Z,11.63
2022-12-31T21:52:15.257Z,12.93
2022-12-31T21:55:00.877Z,15.33
2022-12-31T21:57:29.142Z,11.67
2022-12-31T22:00:40.970Z,14.57
2022-12-31T22:03:21.171Z,15.93
2022-12-31T22:05:53.497Z,13.67
2022-12-31T22:08:22.744Z,14.53
2022-12-31T22:10:52.937Z,17.67
2022-12-31T22:13:21.199Z,13.97
2022-12-31T22:16:00.230Z,15.70
2022-12-31T22:18:34.456Z,17.00
2022-12-31T22:21:05.655Z,15.03
2022-12-31T22:23:35.096Z,17.27
2022-12-31T22:26:04.573Z,19.00
2022-12-31T22:28:38.626Z,23.40
2022-12-31T22:31:08.104Z,24.10
2022-12-31T22:33:36.242Z,26.20
2022-12-31T22:36:07.101Z,32.43
2022-12-31T22:38:35.734Z,34.60
2022-12-31T22:41:06.496Z,35.03
2022-12-31T22:43:35.468Z,37.37
2022-12-31T22:46:10.739Z,35.03
2022-12-31T22:48:39.373Z,42.60
2022-12-31T22:51:10.774Z,40.40
2022-12-31T22:53:39.626Z,38.73
2022-12-31T22:56:08.273Z,42.03
2022-12-31T22:58:39.290Z,40.33
2022-12-31T23:01:08.505Z,41.63
2022-12-31T23:03:37.752Z,47.23
2022-12-31T23:06:06.051Z,77.73
2022-12-31T23:08:35.471Z,65.70
2022-12-31T23:11:05.798Z,80.87
2022-12-31T23:13:57.662Z,96.60
2022-12-31T23:16:45.166Z,158.53
2022-12-31T23:19:31.085Z,300.70
2022-12-31T23:22:16.466Z,250.97
2022-12-31T23:24:45.780Z,616.93
2022-12-31T23:27:15.846Z,708.63
2022-12-31T23:29:47.032Z,672.70
2022-12-31T23:32:16.442Z,867.60
2022-12-31T23:34:45.245Z,622.17
2022-12-31T23:37:13.598Z,600.70
2022-12-31T23:39:41.835Z,786.63
2022-12-31T23:42:11.393Z,745.20
2022-12-31T23:44:39.544Z,1077.47
2022-12-31T23:47:07.602Z,1246.70
2022-12-31T23:49:35.600Z,1303.40
2022-12-31T23:52:03.582Z,1104.47
2022-12-31T23:54:31.590Z,1107.40
2022-12-31T23:56:59.750Z,1199.83
2022-12-31T23:59:29.034Z,1102.57
